Horquilla, Argentina
Current Conditions -  °F | °C
As of 6:00 PM on Saturday 25 Oct 2014 (Local Time) from SARE Reporting Station
Clear Clear  
Wind Chill: 91°   Ceiling: Unl
Heat Index: 93°   Visibility: 6mi
Dew Point: 64°   Wind: 3mph
Humidity: 41%   Direction: 180°S
Pressure: 29.77"   Gusts: NA
Location:  27.53°S, 60.18°W
Report Text: SARE 252100Z 18003KT CAVOK 33/18 Q1008
Loading
Personal Weather Stations






























Interactive Weather Map
Tropical Storm Tracking
New forecast layout! Learn more

10-Day Weather Forecast

Advertisements
Track Severe Weather on mobile